createdAt,value
2017-11-13T00:00:05.590Z,6.50
2017-11-13T00:01:05.484Z,6.40
2017-11-13T00:02:06.526Z,6.60
2017-11-13T00:03:05.495Z,6.40
2017-11-13T00:04:17.092Z,6.40
2017-11-13T00:05:05.503Z,6.90
2017-11-13T00:06:05.538Z,6.70
2017-11-13T00:07:05.520Z,7.30
2017-11-13T00:08:06.569Z,6.70
2017-11-13T00:09:05.510Z,6.20
2017-11-13T00:10:05.562Z,6.60
2017-11-13T00:11:05.522Z,6.80
2017-11-13T00:12:05.571Z,6.20
2017-11-13T00:13:05.531Z,6.70
2017-11-13T00:14:05.611Z,6.50
2017-11-13T00:15:05.547Z,6.50
2017-11-13T00:16:05.592Z,6.50
2017-11-13T00:17:05.547Z,6.40
2017-11-13T00:18:06.634Z,6.60
2017-11-13T00:19:05.555Z,6.30
2017-11-13T00:20:05.626Z,6.80
2017-11-13T00:21:05.566Z,6.50
2017-11-13T00:22:05.644Z,6.70
2017-11-13T00:23:05.571Z,6.50
2017-11-13T00:24:06.672Z,6.60
2017-11-13T00:25:05.587Z,6.30
2017-11-13T00:26:05.663Z,6.00
2017-11-13T00:27:05.596Z,6.10
2017-11-13T00:28:05.678Z,6.60
2017-11-13T00:29:05.602Z,6.30
2017-11-13T00:30:05.696Z,6.70
2017-11-13T00:31:05.605Z,6.10
2017-11-13T00:32:05.696Z,6.10
2017-11-13T00:33:05.620Z,6.70
2017-11-13T00:34:06.642Z,6.30
2017-11-13T00:35:05.623Z,5.70
2017-11-13T00:36:05.732Z,5.70
2017-11-13T00:37:05.627Z,5.90
2017-11-13T00:38:05.742Z,6.30
2017-11-13T00:39:05.638Z,6.20
2017-11-13T00:40:05.753Z,6.00
2017-11-13T00:41:05.645Z,5.90
2017-11-13T00:42:05.671Z,5.40
2017-11-13T00:43:05.650Z,5.40
2017-11-13T00:44:05.684Z,5.10
2017-11-13T00:45:05.664Z,5.20
2017-11-13T00:46:05.697Z,5.80
2017-11-13T00:47:05.681Z,5.50
2017-11-13T00:48:05.713Z,5.70
2017-11-13T00:49:05.677Z,4.90
2017-11-13T00:50:05.726Z,5.20
2017-11-13T00:51:05.685Z,5.70
2017-11-13T00:52:07.787Z,5.40
2017-11-13T00:53:05.704Z,5.30
2017-11-13T00:54:05.763Z,5.40
2017-11-13T00:55:05.708Z,5.60
2017-11-13T00:56:05.765Z,5.10
2017-11-13T00:57:05.706Z,5.30
2017-11-13T00:58:05.778Z,5.00
2017-11-13T00:59:05.715Z,5.10
2017-11-13T01:00:05.787Z,4.80
2017-11-13T01:01:05.728Z,4.70
2017-11-13T01:02:05.804Z,5.10
2017-11-13T01:03:05.750Z,5.20
2017-11-13T01:04:06.841Z,5.10
2017-11-13T01:05:05.746Z,4.60
2017-11-13T01:06:05.834Z,4.90
2017-11-13T01:07:05.754Z,5.20
2017-11-13T01:08:05.846Z,5.10
2017-11-13T01:09:05.765Z,4.70
2017-11-13T01:10:06.780Z,5.00
2017-11-13T01:11:05.764Z,4.50
2017-11-13T01:12:06.795Z,5.00
2017-11-13T01:13:05.776Z,5.30
2017-11-13T01:14:05.884Z,4.90
2017-11-13T01:15:05.785Z,4.30
2017-11-13T01:16:06.824Z,4.90
2017-11-13T01:17:05.788Z,4.90
2017-11-13T01:18:06.838Z,4.70
2017-11-13T01:19:05.797Z,4.90
2017-11-13T01:20:05.826Z,4.70
2017-11-13T01:21:05.802Z,4.60
2017-11-13T01:22:05.848Z,5.00
2017-11-13T01:23:05.817Z,4.50
2017-11-13T01:24:05.855Z,4.80
2017-11-13T01:25:05.816Z,4.40
2017-11-13T01:26:05.873Z,4.90
2017-11-13T01:27:05.826Z,4.80
2017-11-13T01:28:05.880Z,5.00
2017-11-13T01:29:05.839Z,4.50
2017-11-13T01:30:05.893Z,4.70
2017-11-13T01:31:05.854Z,4.80
2017-11-13T01:32:05.909Z,4.70
2017-11-13T01:33:05.858Z,4.50
2017-11-13T01:34:10.639Z,4.40
2017-11-13T01:35:05.859Z,4.70
2017-11-13T01:36:05.945Z,4.50
2017-11-13T01:37:05.867Z,4.50
2017-11-13T01:38:05.944Z,4.10
2017-11-13T01:39:05.876Z,4.40
2017-11-13T01:40:05.966Z,4.20
2017-11-13T01:41:05.881Z,4.10
2017-11-13T01:42:07.003Z,4.70
2017-11-13T01:43:05.886Z,4.60
2017-11-13T01:44:06.915Z,4.60
2017-11-13T01:45:05.899Z,4.20
2017-11-13T01:46:06.008Z,3.80
2017-11-13T01:47:05.900Z,3.90
2017-11-13T01:48:06.941Z,3.70
2017-11-13T01:49:05.917Z,3.90
2017-11-13T01:50:06.031Z,3.70
2017-11-13T01:51:05.922Z,3.50
2017-11-13T01:52:05.943Z,3.30
2017-11-13T01:53:05.933Z,3.50
2017-11-13T01:54:05.955Z,3.30
2017-11-13T01:55:05.939Z,3.50
2017-11-13T01:56:05.970Z,3.10
2017-11-13T01:57:05.945Z,3.30
2017-11-13T01:58:05.963Z,3.40
2017-11-13T01:59:05.948Z,3.30
2017-11-13T02:00:08.050Z,3.20
2017-11-13T02:01:06.065Z,2.90
2017-11-13T02:02:05.993Z,2.80
2017-11-13T02:03:05.970Z,2.90
2017-11-13T02:04:06.014Z,2.50
2017-11-13T02:05:05.989Z,3.00
2017-11-13T02:06:06.021Z,2.70
2017-11-13T02:07:05.987Z,2.60
2017-11-13T02:08:06.036Z,2.40
2017-11-13T02:09:05.994Z,2.40
2017-11-13T02:10:06.041Z,2.50
2017-11-13T02:11:06.002Z,2.30
2017-11-13T02:12:06.058Z,2.40
2017-11-13T02:13:06.003Z,2.20
2017-11-13T02:14:06.081Z,2.30
2017-11-13T02:15:06.014Z,2.20
2017-11-13T02:16:06.096Z,2.10
2017-11-13T02:17:06.024Z,2.80
2017-11-13T02:18:06.110Z,2.20
2017-11-13T02:19:06.028Z,2.30
2017-11-13T02:20:06.123Z,2.00
2017-11-13T02:21:06.043Z,2.00
2017-11-13T02:22:06.138Z,2.00
2017-11-13T02:23:06.040Z,2.00
2017-11-13T02:24:06.152Z,2.30
2017-11-13T02:25:06.054Z,2.10
2017-11-13T02:26:07.088Z,2.00
2017-11-13T02:27:06.067Z,2.10
2017-11-13T02:28:06.080Z,2.10
2017-11-13T02:29:06.068Z,2.20
2017-11-13T02:30:06.094Z,2.20
2017-11-13T02:31:06.081Z,1.80
2017-11-13T02:32:06.101Z,2.10
2017-11-13T02:33:06.084Z,1.90
2017-11-13T02:34:06.116Z,2.10
2017-11-13T02:35:06.093Z,2.00
2017-11-13T02:36:06.129Z,1.70
2017-11-13T02:37:06.130Z,2.00
2017-11-13T02:38:06.119Z,1.70
2017-11-13T02:39:06.110Z,2.10
2017-11-13T02:40:06.111Z,1.90
2017-11-13T02:41:06.117Z,2.00
2017-11-13T02:42:06.119Z,1.90
2017-11-13T02:43:06.123Z,2.00
2017-11-13T02:44:06.129Z,1.90
2017-11-13T02:45:06.126Z,2.10
2017-11-13T02:46:06.144Z,1.80
2017-11-13T02:47:06.139Z,1.70
2017-11-13T02:48:06.148Z,1.80
2017-11-13T02:49:06.149Z,1.90
2017-11-13T02:50:06.148Z,2.20
2017-11-13T02:51:06.153Z,1.80
2017-11-13T02:52:06.170Z,2.00
2017-11-13T02:53:06.160Z,1.90
2017-11-13T02:54:06.170Z,1.70
2017-11-13T02:55:06.172Z,1.90
2017-11-13T02:56:06.196Z,1.60
2017-11-13T02:57:06.177Z,1.60
2017-11-13T02:58:07.188Z,1.60
2017-11-13T02:59:06.183Z,1.70
2017-11-13T03:00:06.190Z,1.70
2017-11-13T03:01:06.193Z,1.60
2017-11-13T03:02:06.203Z,1.70
2017-11-13T03:03:06.217Z,1.60
2017-11-13T03:04:06.208Z,1.80
2017-11-13T03:05:06.208Z,1.50
2017-11-13T03:06:06.217Z,1.40
2017-11-13T03:07:06.212Z,1.90
2017-11-13T03:08:06.227Z,1.60
2017-11-13T03:09:06.233Z,1.50
2017-11-13T03:10:06.232Z,1.70
2017-11-13T03:11:06.234Z,1.40
2017-11-13T03:12:06.240Z,1.90
2017-11-13T03:13:06.241Z,1.60
2017-11-13T03:14:06.243Z,1.40
2017-11-13T03:15:06.242Z,1.70
2017-11-13T03:16:06.256Z,1.80
2017-11-13T03:17:06.248Z,1.50
2017-11-13T03:18:08.270Z,1.90
2017-11-13T03:19:06.260Z,1.70
2017-11-13T03:20:06.271Z,1.70
2017-11-13T03:21:06.268Z,1.90
2017-11-13T03:22:06.269Z,1.80
2017-11-13T03:23:06.271Z,1.70
2017-11-13T03:24:06.274Z,1.60
2017-11-13T03:25:06.282Z,1.80
2017-11-13T03:26:06.291Z,1.40
2017-11-13T03:27:06.296Z,1.70
2017-11-13T03:28:06.285Z,1.90
2017-11-13T03:29:06.306Z,1.60
2017-11-13T03:30:06.302Z,1.40
2017-11-13T03:31:06.309Z,1.90
2017-11-13T03:32:06.319Z,1.70
2017-11-13T03:33:06.308Z,1.50
2017-11-13T03:34:06.315Z,1.50
2017-11-13T03:35:06.323Z,1.70
2017-11-13T03:36:06.323Z,1.70
2017-11-13T03:37:06.327Z,1.70
2017-11-13T03:38:06.333Z,1.70
2017-11-13T03:39:06.336Z,1.60
2017-11-13T03:40:07.344Z,1.50
2017-11-13T03:41:06.342Z,1.60
2017-11-13T03:42:06.361Z,2.00
2017-11-13T03:43:06.350Z,1.50
2017-11-13T03:44:06.357Z,1.60
2017-11-13T03:45:06.363Z,1.80
2017-11-13T03:46:06.369Z,1.50
2017-11-13T03:47:06.362Z,1.50
2017-11-13T03:48:06.372Z,1.60
2017-11-13T03:49:06.376Z,1.70
2017-11-13T03:50:06.384Z,1.60
2017-11-13T03:51:06.390Z,1.70
2017-11-13T03:52:07.386Z,1.60
2017-11-13T03:53:06.396Z,1.70
2017-11-13T03:54:06.401Z,1.40
2017-11-13T03:55:06.395Z,1.60
2017-11-13T03:56:06.399Z,1.70
2017-11-13T03:57:06.398Z,1.60
2017-11-13T03:58:06.410Z,2.00
2017-11-13T03:59:06.401Z,1.60
2017-11-13T04:00:06.413Z,1.80
2017-11-13T04:01:06.425Z,1.80
2017-11-13T04:02:06.423Z,1.90
2017-11-13T04:03:06.423Z,2.00
2017-11-13T04:04:06.433Z,1.80
2017-11-13T04:05:06.444Z,1.90
2017-11-13T04:06:06.437Z,2.00
2017-11-13T04:07:06.440Z,1.70
2017-11-13T04:08:06.451Z,2.30
2017-11-13T04:09:06.460Z,2.10
2017-11-13T04:10:06.455Z,2.00
2017-11-13T04:11:06.451Z,2.10
2017-11-13T04:12:06.462Z,2.50
2017-11-13T04:13:06.461Z,2.00
2017-11-13T04:14:06.471Z,2.30
2017-11-13T04:15:06.469Z,2.00
2017-11-13T04:16:08.472Z,1.90
2017-11-13T04:17:06.475Z,1.90
2017-11-13T04:18:06.491Z,2.20
2017-11-13T04:19:06.481Z,2.00
2017-11-13T04:20:06.485Z,2.40
2017-11-13T04:21:06.494Z,2.00
2017-11-13T04:22:06.497Z,2.90
2017-11-13T04:23:06.498Z,2.70
2017-11-13T04:24:06.512Z,2.20
2017-11-13T04:25:06.506Z,2.20
2017-11-13T04:26:06.529Z,2.50
2017-11-13T04:27:06.516Z,2.60
2017-11-13T04:28:06.525Z,2.20
2017-11-13T04:29:06.528Z,2.10
2017-11-13T04:30:08.540Z,2.40
2017-11-13T04:31:06.527Z,2.20
2017-11-13T04:32:06.538Z,2.40
2017-11-13T04:33:06.532Z,2.20
2017-11-13T04:34:06.541Z,3.30
2017-11-13T04:35:06.548Z,2.30
2017-11-13T04:36:06.562Z,2.00
2017-11-13T04:37:06.546Z,2.30
2017-11-13T04:38:06.560Z,2.20
2017-11-13T04:39:06.565Z,2.40
2017-11-13T04:40:07.565Z,2.60
2017-11-13T04:41:06.564Z,2.50
2017-11-13T04:42:06.574Z,2.60
2017-11-13T04:43:06.574Z,2.40
2017-11-13T04:44:06.584Z,2.60
2017-11-13T04:45:06.594Z,2.60
2017-11-13T04:46:06.586Z,2.40
2017-11-13T04:47:06.600Z,2.90
2017-11-13T04:48:06.613Z,2.40
2017-11-13T04:49:06.597Z,2.50
2017-11-13T04:50:06.608Z,2.50
2017-11-13T04:51:06.608Z,2.10
2017-11-13T04:52:06.605Z,2.60
2017-11-13T04:53:06.612Z,2.40
2017-11-13T04:54:06.606Z,3.00
2017-11-13T04:55:06.621Z,2.90
2017-11-13T04:56:06.621Z,2.10
2017-11-13T04:57:06.633Z,2.70
2017-11-13T04:58:06.632Z,2.40
2017-11-13T04:59:06.637Z,2.50
2017-11-13T05:00:06.650Z,3.30
2017-11-13T05:01:06.641Z,2.30
2017-11-13T05:02:06.646Z,2.40
2017-11-13T05:03:06.663Z,2.50
2017-11-13T05:04:06.652Z,2.60
2017-11-13T05:05:06.675Z,2.80
2017-11-13T05:06:06.655Z,2.70
2017-11-13T05:07:06.671Z,3.00
2017-11-13T05:08:06.661Z,2.60
2017-11-13T05:09:06.688Z,2.50
2017-11-13T05:10:06.669Z,2.80
2017-11-13T05:11:06.672Z,2.80
2017-11-13T05:12:06.675Z,2.80
2017-11-13T05:13:06.683Z,2.70
2017-11-13T05:14:06.688Z,3.10
2017-11-13T05:15:06.689Z,3.00
2017-11-13T05:16:06.700Z,3.10
2017-11-13T05:17:06.699Z,2.60
2017-11-13T05:18:06.707Z,2.60
2017-11-13T05:19:06.709Z,2.90
2017-11-13T05:20:06.719Z,2.50
2017-11-13T05:21:06.723Z,3.60
2017-11-13T05:22:06.723Z,2.70
2017-11-13T05:23:06.721Z,2.90
2017-11-13T05:24:06.725Z,3.00
2017-11-13T05:25:06.723Z,2.80
2017-11-13T05:26:06.738Z,3.00
2017-11-13T05:27:06.737Z,2.80
2017-11-13T05:28:06.780Z,2.50
2017-11-13T05:29:06.752Z,3.00
2017-11-13T05:30:06.768Z,2.90
2017-11-13T05:31:06.754Z,2.40
2017-11-13T05:32:06.789Z,3.20
2017-11-13T05:33:06.784Z,2.50
2017-11-13T05:34:06.761Z,2.80
2017-11-13T05:35:06.767Z,2.90
2017-11-13T05:36:06.771Z,2.70
2017-11-13T05:37:06.771Z,2.70
2017-11-13T05:38:06.781Z,2.40
2017-11-13T05:39:06.789Z,2.90
2017-11-13T05:40:06.798Z,3.30
2017-11-13T05:41:06.799Z,3.30
2017-11-13T05:42:06.795Z,3.10
2017-11-13T05:43:06.803Z,2.70
2017-11-13T05:44:06.807Z,2.90
2017-11-13T05:45:06.807Z,3.10
2017-11-13T05:46:06.810Z,3.00
2017-11-13T05:47:06.810Z,2.80
2017-11-13T05:48:06.807Z,3.10
2017-11-13T05:49:06.818Z,2.60
2017-11-13T05:50:06.816Z,3.30
2017-11-13T05:51:06.893Z,3.20
2017-11-13T05:52:06.830Z,2.50
2017-11-13T05:53:06.910Z,2.60
2017-11-13T05:54:06.837Z,3.30
2017-11-13T05:55:06.914Z,3.40
2017-11-13T05:56:06.844Z,3.20
2017-11-13T05:57:06.930Z,3.30
2017-11-13T05:58:06.850Z,3.00
2017-11-13T05:59:06.946Z,2.90
2017-11-13T06:00:06.859Z,3.10
2017-11-13T06:01:06.901Z,2.90
2017-11-13T06:02:06.865Z,3.00
2017-11-13T06:03:06.913Z,3.00
2017-11-13T06:04:06.869Z,2.90
2017-11-13T06:05:06.928Z,3.00
2017-11-13T06:06:06.877Z,2.70
2017-11-13T06:07:06.940Z,2.80
2017-11-13T06:08:06.881Z,2.80
2017-11-13T06:09:06.953Z,2.70
2017-11-13T06:10:06.893Z,2.60
2017-11-13T06:11:06.969Z,3.30
2017-11-13T06:12:06.902Z,2.90
2017-11-13T06:13:06.925Z,2.90
2017-11-13T06:14:06.910Z,2.30
2017-11-13T06:15:06.969Z,2.70
2017-11-13T06:16:06.914Z,2.90
2017-11-13T06:17:06.950Z,2.70
2017-11-13T06:18:06.923Z,2.70
2017-11-13T06:19:06.965Z,2.90
2017-11-13T06:20:06.925Z,2.60
2017-11-13T06:21:06.977Z,2.80
2017-11-13T06:22:06.940Z,2.80
2017-11-13T06:23:06.994Z,2.90
2017-11-13T06:24:06.946Z,2.60
2017-11-13T06:25:07.008Z,2.90
2017-11-13T06:26:06.951Z,2.70
2017-11-13T06:27:06.985Z,2.40
2017-11-13T06:28:06.949Z,2.90
2017-11-13T06:29:07.010Z,2.60
2017-11-13T06:30:06.970Z,3.20
2017-11-13T06:31:07.006Z,3.00
2017-11-13T06:32:06.971Z,4.00
2017-11-13T06:33:07.029Z,3.20
2017-11-13T06:34:06.995Z,3.10
2017-11-13T06:35:07.037Z,3.00
2017-11-13T06:36:06.986Z,3.30
2017-11-13T06:37:07.051Z,3.20
2017-11-13T06:38:07.000Z,3.10
2017-11-13T06:39:07.067Z,3.10
2017-11-13T06:40:07.004Z,2.70
2017-11-13T06:41:07.070Z,3.40
2017-11-13T06:42:07.014Z,3.20
2017-11-13T06:43:07.085Z,2.50
2017-11-13T06:44:07.014Z,2.80
2017-11-13T06:45:07.096Z,2.60
2017-11-13T06:46:07.066Z,3.00
2017-11-13T06:47:07.109Z,2.60
2017-11-13T06:48:07.034Z,2.70
2017-11-13T06:49:07.041Z,2.80
2017-11-13T06:50:07.130Z,2.70
2017-11-13T06:51:07.039Z,2.70
2017-11-13T06:52:07.145Z,2.80
2017-11-13T06:53:07.047Z,2.60
2017-11-13T06:54:07.152Z,2.80
2017-11-13T06:55:07.051Z,2.70
2017-11-13T06:56:07.170Z,2.90
2017-11-13T06:57:07.061Z,2.60
2017-11-13T06:58:07.095Z,3.00
2017-11-13T06:59:07.066Z,3.00
2017-11-13T07:00:07.088Z,3.20
2017-11-13T07:01:07.073Z,2.70
2017-11-13T07:02:07.112Z,3.40
2017-11-13T07:03:07.086Z,3.00
2017-11-13T07:04:07.125Z,2.90
2017-11-13T07:05:07.092Z,2.40
2017-11-13T07:06:07.130Z,2.70
2017-11-13T07:07:07.093Z,3.10
2017-11-13T07:08:07.154Z,3.10
2017-11-13T07:09:07.108Z,2.90
2017-11-13T07:10:07.172Z,2.60
2017-11-13T07:11:07.114Z,3.20
2017-11-13T07:12:07.176Z,2.90
2017-11-13T07:13:07.115Z,3.10
2017-11-13T07:14:07.194Z,3.00
2017-11-13T07:15:07.128Z,2.80
2017-11-13T07:16:07.210Z,3.10
2017-11-13T07:17:07.133Z,3.30
2017-11-13T07:18:07.247Z,2.70
2017-11-13T07:19:07.136Z,3.30
2017-11-13T07:20:08.181Z,3.00
2017-11-13T07:21:07.151Z,3.40
2017-11-13T07:22:07.173Z,2.70
2017-11-13T07:23:07.152Z,2.60
2017-11-13T07:24:07.190Z,2.50
2017-11-13T07:25:07.157Z,3.30
2017-11-13T07:26:07.200Z,3.00
2017-11-13T07:27:07.170Z,3.00
2017-11-13T07:28:07.212Z,3.30
2017-11-13T07:29:07.173Z,3.60
2017-11-13T07:30:07.221Z,3.40
2017-11-13T07:31:07.182Z,3.00
2017-11-13T07:32:07.246Z,3.40
2017-11-13T07:33:07.194Z,2.70
2017-11-13T07:34:07.245Z,3.30
2017-11-13T07:35:07.197Z,3.00
2017-11-13T07:36:08.288Z,3.10
2017-11-13T07:37:07.201Z,2.90
2017-11-13T07:38:07.272Z,2.80
2017-11-13T07:39:07.225Z,3.20
2017-11-13T07:40:07.292Z,3.40
2017-11-13T07:41:07.221Z,2.80
2017-11-13T07:42:07.415Z,3.00
2017-11-13T07:43:07.219Z,2.70
2017-11-13T07:44:07.237Z,3.20
2017-11-13T07:45:07.231Z,3.20
2017-11-13T07:46:07.238Z,3.10
2017-11-13T07:47:08.274Z,3.20
2017-11-13T07:48:07.249Z,3.30
2017-11-13T07:49:07.247Z,3.10
2017-11-13T07:50:07.248Z,2.60
2017-11-13T07:51:07.369Z,3.70
2017-11-13T07:52:07.259Z,3.30
2017-11-13T07:53:09.328Z,3.20
2017-11-13T07:54:07.265Z,3.70
2017-11-13T07:55:08.342Z,3.30
2017-11-13T07:56:07.275Z,3.50
2017-11-13T07:57:07.304Z,3.00
2017-11-13T07:58:07.283Z,3.20
2017-11-13T07:59:07.317Z,3.30
2017-11-13T08:00:07.315Z,3.30
2017-11-13T08:01:07.332Z,3.80
2017-11-13T08:02:07.300Z,3.40
2017-11-13T08:03:07.300Z,3.10
2017-11-13T08:04:07.304Z,3.50
2017-11-13T08:05:07.359Z,2.80
2017-11-13T08:06:07.307Z,3.40
2017-11-13T08:07:07.373Z,3.40
2017-11-13T08:08:07.319Z,3.50
2017-11-13T08:09:07.384Z,3.70
2017-11-13T08:10:07.327Z,3.50
2017-11-13T08:11:08.424Z,3.90
2017-11-13T08:12:07.342Z,3.50
2017-11-13T08:13:07.417Z,3.70
2017-11-13T08:14:07.345Z,3.10
2017-11-13T08:15:08.452Z,3.10
2017-11-13T08:16:07.363Z,3.00
2017-11-13T08:17:07.444Z,3.30
2017-11-13T08:18:07.367Z,3.00
2017-11-13T08:19:07.458Z,3.10
2017-11-13T08:20:07.375Z,3.20
2017-11-13T08:21:08.426Z,2.50
2017-11-13T08:22:07.384Z,2.90
2017-11-13T08:23:07.488Z,3.40
2017-11-13T08:24:07.391Z,3.80
2017-11-13T08:25:08.432Z,3.50
2017-11-13T08:26:07.399Z,3.40
2017-11-13T08:27:07.525Z,3.40
2017-11-13T08:28:07.411Z,3.50
2017-11-13T08:29:07.528Z,3.50
2017-11-13T08:30:07.418Z,3.30
2017-11-13T08:31:07.528Z,3.30
2017-11-13T08:32:07.432Z,3.90
2017-11-13T08:33:07.439Z,3.50
2017-11-13T08:34:07.437Z,2.90
2017-11-13T08:35:07.431Z,3.70
2017-11-13T08:36:07.443Z,3.50
2017-11-13T08:37:07.468Z,3.70
2017-11-13T08:38:07.456Z,3.90
2017-11-13T08:39:07.481Z,3.50
2017-11-13T08:40:07.463Z,3.40
2017-11-13T08:41:07.496Z,4.00
2017-11-13T08:42:07.474Z,3.60
2017-11-13T08:43:08.555Z,3.90
2017-11-13T08:44:07.494Z,3.40
2017-11-13T08:45:18.116Z,3.40
2017-11-13T08:46:07.499Z,3.50
2017-11-13T08:47:07.554Z,3.50
2017-11-13T08:48:07.516Z,3.60
2017-11-13T08:49:07.550Z,3.80
2017-11-13T08:50:07.519Z,3.90
2017-11-13T08:51:07.600Z,3.70
2017-11-13T08:52:07.532Z,3.90
2017-11-13T08:53:07.608Z,3.40
2017-11-13T08:54:07.546Z,3.50
2017-11-13T08:55:07.622Z,3.60
2017-11-13T08:56:07.556Z,3.40
2017-11-13T08:57:07.643Z,4.00
2017-11-13T08:58:07.566Z,3.60
2017-11-13T08:59:07.655Z,4.00
2017-11-13T09:00:07.584Z,3.40
2017-11-13T09:01:07.660Z,3.50
2017-11-13T09:02:07.600Z,3.60
2017-11-13T09:03:07.675Z,4.00
2017-11-13T09:04:07.621Z,3.30
2017-11-13T09:05:07.706Z,4.50
2017-11-13T09:06:07.628Z,3.40
2017-11-13T09:07:07.710Z,4.00
2017-11-13T09:08:07.648Z,3.60
2017-11-13T09:09:07.720Z,3.90
2017-11-13T09:10:07.659Z,3.80
2017-11-13T09:11:07.738Z,3.70
2017-11-13T09:12:07.678Z,4.10
2017-11-13T09:13:07.741Z,4.40
2017-11-13T09:14:07.682Z,4.00
2017-11-13T09:15:07.763Z,4.80
2017-11-13T09:16:07.701Z,3.90
2017-11-13T09:17:07.775Z,4.30
2017-11-13T09:18:07.719Z,4.00
2017-11-13T09:19:07.788Z,4.50
2017-11-13T09:20:07.727Z,4.60
2017-11-13T09:21:07.819Z,4.20
2017-11-13T09:22:07.743Z,4.20
2017-11-13T09:23:07.820Z,4.60
2017-11-13T09:24:07.769Z,4.50
2017-11-13T09:25:07.931Z,4.10
2017-11-13T09:26:07.775Z,4.10
2017-11-13T09:27:07.788Z,4.30
2017-11-13T09:28:07.798Z,4.40
2017-11-13T09:29:07.812Z,3.60
2017-11-13T09:30:07.818Z,4.20
2017-11-13T09:31:07.922Z,3.80
2017-11-13T09:32:07.834Z,4.10
2017-11-13T09:33:07.843Z,3.90
2017-11-13T09:34:07.950Z,4.00
2017-11-13T09:35:07.854Z,3.60
2017-11-13T09:36:07.921Z,3.60
2017-11-13T09:37:07.870Z,4.00
2017-11-13T09:38:07.878Z,3.90
2017-11-13T09:39:07.895Z,3.50
2017-11-13T09:40:07.895Z,3.80
2017-11-13T09:41:07.956Z,4.20
2017-11-13T09:42:07.914Z,4.00
2017-11-13T09:43:07.969Z,3.80
2017-11-13T09:44:07.933Z,4.20
2017-11-13T09:45:07.985Z,4.20
2017-11-13T09:46:07.943Z,4.60
2017-11-13T09:47:07.995Z,4.40
2017-11-13T09:48:07.966Z,4.60
2017-11-13T09:49:08.009Z,4.40
2017-11-13T09:50:07.979Z,4.80
2017-11-13T09:51:08.022Z,5.00
2017-11-13T09:52:07.996Z,4.30
2017-11-13T09:53:08.037Z,3.70
2017-11-13T09:54:08.010Z,4.60
2017-11-13T09:55:08.046Z,3.90
2017-11-13T09:56:08.036Z,4.10
2017-11-13T09:57:08.061Z,4.20
2017-11-13T09:58:08.042Z,4.30
2017-11-13T09:59:08.071Z,4.30
2017-11-13T10:00:08.063Z,4.90
2017-11-13T10:01:08.090Z,4.30
2017-11-13T10:02:08.082Z,3.80
2017-11-13T10:03:08.103Z,3.50
2017-11-13T10:04:08.088Z,3.80
2017-11-13T10:05:08.121Z,4.10
2017-11-13T10:06:08.115Z,3.60
2017-11-13T10:07:08.141Z,3.50
2017-11-13T10:08:08.128Z,3.50
2017-11-13T10:09:08.253Z,3.90
2017-11-13T10:10:08.162Z,3.20
2017-11-13T10:11:08.274Z,4.00
2017-11-13T10:12:08.149Z,3.20
2017-11-13T10:13:08.281Z,3.90
2017-11-13T10:14:08.174Z,3.10
2017-11-13T10:15:08.298Z,3.50
2017-11-13T10:16:08.188Z,3.10
2017-11-13T10:17:08.310Z,3.70
2017-11-13T10:18:08.198Z,3.30
2017-11-13T10:19:08.326Z,3.50
2017-11-13T10:20:08.214Z,3.70
2017-11-13T10:21:08.278Z,3.90
2017-11-13T10:22:08.236Z,3.50
2017-11-13T10:23:08.294Z,3.80
2017-11-13T10:24:08.252Z,3.40
2017-11-13T10:25:08.300Z,3.80
2017-11-13T10:26:08.273Z,4.30
2017-11-13T10:27:08.315Z,3.60
2017-11-13T10:28:08.278Z,3.20
2017-11-13T10:29:08.334Z,3.90
2017-11-13T10:30:08.302Z,3.70
2017-11-13T10:31:08.344Z,3.50
2017-11-13T10:32:08.304Z,3.60
2017-11-13T10:33:09.380Z,3.40
2017-11-13T10:34:08.325Z,3.60
2017-11-13T10:35:08.372Z,3.90
2017-11-13T10:36:08.330Z,3.60
2017-11-13T10:37:08.393Z,3.30
2017-11-13T10:38:08.347Z,3.60
2017-11-13T10:39:08.398Z,3.80
2017-11-13T10:40:08.360Z,3.80
2017-11-13T10:41:08.412Z,3.90
2017-11-13T10:42:08.378Z,3.70
2017-11-13T10:43:08.434Z,3.80
2017-11-13T10:44:08.390Z,3.70
2017-11-13T10:45:09.468Z,3.50
2017-11-13T10:46:08.405Z,3.50
2017-11-13T10:47:08.465Z,3.40
2017-11-13T10:48:08.427Z,3.10
2017-11-13T10:49:08.469Z,3.50
2017-11-13T10:50:08.437Z,3.70
2017-11-13T10:51:08.492Z,3.50
2017-11-13T10:52:08.439Z,3.70
2017-11-13T10:53:08.497Z,3.90
2017-11-13T10:54:08.483Z,3.40
2017-11-13T10:55:08.512Z,3.80
2017-11-13T10:56:08.481Z,3.10
2017-11-13T10:57:08.525Z,3.60
2017-11-13T10:58:08.496Z,3.70
2017-11-13T10:59:08.544Z,3.90
2017-11-13T11:00:08.526Z,3.30
2017-11-13T11:01:08.551Z,3.60
2017-11-13T11:02:08.522Z,3.60
2017-11-13T11:03:08.573Z,3.70
2017-11-13T11:04:08.531Z,3.40
2017-11-13T11:05:08.579Z,3.40
2017-11-13T11:06:08.552Z,3.80
2017-11-13T11:07:08.596Z,3.80
2017-11-13T11:08:08.571Z,3.60
2017-11-13T11:09:08.607Z,3.60
2017-11-13T11:10:08.580Z,4.00
2017-11-13T11:11:08.647Z,3.40
2017-11-13T11:12:08.601Z,3.50
2017-11-13T11:13:08.638Z,4.30
2017-11-13T11:14:08.608Z,3.60
2017-11-13T11:15:08.650Z,4.00
2017-11-13T11:16:08.633Z,3.90
2017-11-13T11:17:08.669Z,3.60
2017-11-13T11:18:08.640Z,3.80
2017-11-13T11:19:08.672Z,4.00
2017-11-13T11:20:08.660Z,4.00
2017-11-13T11:21:08.688Z,4.20
2017-11-13T11:22:08.668Z,3.80
2017-11-13T11:23:08.709Z,3.90
2017-11-13T11:24:08.689Z,3.90
2017-11-13T11:25:08.718Z,4.30
2017-11-13T11:26:08.738Z,3.90
2017-11-13T11:27:08.732Z,3.70
2017-11-13T11:28:08.717Z,3.50
2017-11-13T11:29:08.748Z,4.60
2017-11-13T11:30:08.748Z,3.70
2017-11-13T11:31:09.781Z,4.60
2017-11-13T11:32:08.768Z,3.10
2017-11-13T11:33:08.771Z,3.50
2017-11-13T11:34:08.756Z,3.80
2017-11-13T11:35:08.788Z,3.80
2017-11-13T11:36:08.784Z,3.70
2017-11-13T11:37:08.823Z,3.60
2017-11-13T11:38:08.802Z,3.20
2017-11-13T11:39:08.818Z,3.60
2017-11-13T11:40:08.817Z,3.30
2017-11-13T11:41:08.834Z,3.80
2017-11-13T11:42:08.825Z,3.50
2017-11-13T11:43:08.847Z,3.90
2017-11-13T11:44:08.836Z,4.00
2017-11-13T11:45:08.856Z,3.20
2017-11-13T11:46:08.858Z,3.50
2017-11-13T11:47:08.872Z,3.60
2017-11-13T11:48:08.892Z,3.70
2017-11-13T11:49:08.992Z,4.00
2017-11-13T11:50:08.879Z,3.60
2017-11-13T11:51:09.002Z,3.60
2017-11-13T11:52:08.892Z,3.50
2017-11-13T11:53:08.972Z,3.40
2017-11-13T11:54:08.906Z,3.50
2017-11-13T11:55:10.017Z,3.50
2017-11-13T11:56:08.930Z,4.10
2017-11-13T11:57:09.000Z,3.30
2017-11-13T11:58:08.944Z,3.80
2017-11-13T11:59:09.017Z,3.60
2017-11-13T12:00:08.957Z,3.90
2017-11-13T12:01:09.052Z,3.40
2017-11-13T12:02:08.972Z,3.80
2017-11-13T12:03:09.041Z,3.70
2017-11-13T12:04:08.987Z,3.50
2017-11-13T12:05:09.079Z,3.40
2017-11-13T12:06:09.012Z,3.50
2017-11-13T12:07:09.066Z,3.60
2017-11-13T12:08:09.022Z,3.10
2017-11-13T12:09:09.081Z,3.90
2017-11-13T12:10:09.041Z,2.90
2017-11-13T12:11:09.098Z,3.00
2017-11-13T12:12:09.055Z,3.60
2017-11-13T12:13:09.136Z,3.50
2017-11-13T12:14:09.087Z,3.30
2017-11-13T12:15:09.126Z,3.60
2017-11-13T12:16:09.092Z,3.30
2017-11-13T12:17:10.161Z,3.50
2017-11-13T12:18:09.105Z,3.50
2017-11-13T12:19:09.142Z,3.40
2017-11-13T12:20:09.142Z,3.30
2017-11-13T12:21:09.160Z,3.50
2017-11-13T12:22:09.145Z,3.20
2017-11-13T12:23:09.169Z,3.20
2017-11-13T12:24:09.152Z,3.70
2017-11-13T12:25:09.198Z,3.50
2017-11-13T12:26:09.167Z,3.40
2017-11-13T12:27:10.227Z,3.80
2017-11-13T12:28:09.183Z,3.10
2017-11-13T12:29:09.261Z,3.80
2017-11-13T12:30:09.202Z,3.20
2017-11-13T12:31:10.305Z,3.30
2017-11-13T12:32:09.215Z,3.20
2017-11-13T12:33:09.355Z,3.50
2017-11-13T12:34:09.230Z,3.30
2017-11-13T12:35:09.299Z,3.50
2017-11-13T12:36:09.242Z,3.50
2017-11-13T12:37:09.310Z,3.60
2017-11-13T12:38:09.263Z,3.60
2017-11-13T12:39:09.326Z,3.80
2017-11-13T12:40:09.277Z,3.90
2017-11-13T12:41:09.341Z,3.70
2017-11-13T12:42:09.291Z,3.40
2017-11-13T12:43:09.351Z,3.60
2017-11-13T12:44:09.310Z,2.90
2017-11-13T12:45:09.367Z,3.00
2017-11-13T12:46:09.329Z,3.40
2017-11-13T12:47:09.411Z,2.80
2017-11-13T12:48:09.340Z,3.40
2017-11-13T12:49:09.440Z,3.40
2017-11-13T12:50:09.364Z,3.20
2017-11-13T12:51:09.451Z,3.50
2017-11-13T12:52:09.374Z,3.40
2017-11-13T12:53:09.462Z,3.40
2017-11-13T12:54:09.388Z,3.40
2017-11-13T12:55:09.490Z,3.30
2017-11-13T12:56:09.422Z,3.20
2017-11-13T12:57:09.497Z,3.40
2017-11-13T12:58:09.419Z,3.60
2017-11-13T12:59:09.512Z,3.40
2017-11-13T13:00:09.438Z,3.30
2017-11-13T13:01:09.527Z,3.60
2017-11-13T13:02:09.452Z,3.20
2017-11-13T13:03:09.543Z,3.50
2017-11-13T13:04:09.463Z,2.70
2017-11-13T13:05:09.558Z,3.60
2017-11-13T13:06:09.476Z,3.80
2017-11-13T13:07:09.565Z,3.40
2017-11-13T13:08:09.492Z,3.90
2017-11-13T13:09:09.585Z,3.40
2017-11-13T13:10:09.510Z,4.20
2017-11-13T13:11:09.597Z,3.70
2017-11-13T13:12:09.517Z,4.30
2017-11-13T13:13:09.612Z,4.30
2017-11-13T13:14:09.539Z,4.00
2017-11-13T13:15:09.630Z,3.60
2017-11-13T13:16:09.559Z,3.60
2017-11-13T13:17:09.641Z,3.70
2017-11-13T13:18:09.572Z,3.20